sensor_id;sensor_type;location;lat;lon;timestamp;temperature;humidity
4693;DHT22;11710;48.024;16.296;2023-04-24T04:44:50;15.50;99.90
4693;DHT22;11710;48.024;16.296;2023-04-24T04:47:17;15.70;99.90
4693;DHT22;11710;48.024;16.296;2023-04-24T04:49:45;16.00;99.90
4693;DHT22;11710;48.024;16.296;2023-04-24T04:52:12;16.50;99.90
4693;DHT22;11710;48.024;16.296;2023-04-24T04:54:39;16.90;99.90
4693;DHT22;11710;48.024;16.296;2023-04-24T04:57:06;17.40;99.80
4693;DHT22;11710;48.024;16.296;2023-04-24T04:59:33;18.30;98.70
4693;DHT22;11710;48.024;16.296;2023-04-24T05:02:02;18.60;97.80
4693;DHT22;11710;48.024;16.296;2023-04-24T05:04:29;18.90;96.90
4693;DHT22;11710;48.024;16.296;2023-04-24T05:06:57;18.80;96.20
4693;DHT22;11710;48.024;16.296;2023-04-24T05:09:24;18.60;95.70
4693;DHT22;11710;48.024;16.296;2023-04-24T05:11:53;17.30;96.40
4693;DHT22;11710;48.024;16.296;2023-04-24T05:14:21;16.50;97.80
4693;DHT22;11710;48.024;16.296;2023-04-24T05:16:48;16.30;98.00
4693;DHT22;11710;48.024;16.296;2023-04-24T05:19:17;16.10;98.50
4693;DHT22;11710;48.024;16.296;2023-04-24T05:21:44;15.60;99.10
4693;DHT22;11710;48.024;16.296;2023-04-24T05:24:11;15.60;99.40
4693;DHT22;11710;48.024;16.296;2023-04-24T05:26:38;15.30;99.80
4693;DHT22;11710;48.024;16.296;2023-04-24T05:29:06;15.30;99.90
4693;DHT22;11710;48.024;16.296;2023-04-24T05:31:33;15.50;99.90
4693;DHT22;11710;48.024;16.296;2023-04-24T05:34:00;15.60;99.90
4693;DHT22;11710;48.024;16.296;2023-04-24T05:36:28;15.80;99.90
4693;DHT22;11710;48.024;16.296;2023-04-24T05:38:56;16.00;99.70
4693;DHT22;11710;48.024;16.296;2023-04-24T05:41:23;16.00;99.30
4693;DHT22;11710;48.024;16.296;2023-04-24T05:43:51;16.10;99.50
4693;DHT22;11710;48.024;16.296;2023-04-24T05:46:18;16.10;99.20
4693;DHT22;11710;48.024;16.296;2023-04-24T05:48:45;16.00;99.20
4693;DHT22;11710;48.024;16.296;2023-04-24T05:51:12;16.00;99.20
4693;DHT22;11710;48.024;16.296;2023-04-24T05:53:41;15.70;99.60
4693;DHT22;11710;48.024;16.296;2023-04-24T05:56:08;15.40;99.80
4693;DHT22;11710;48.024;16.296;2023-04-24T05:58:35;15.20;99.90
4693;DHT22;11710;48.024;16.296;2023-04-24T06:01:03;15.10;99.90
4693;DHT22;11710;48.024;16.296;2023-04-24T06:03:31;15.00;99.90
4693;DHT22;11710;48.024;16.296;2023-04-24T06:05:58;15.10;99.90
4693;DHT22;11710;48.024;16.296;2023-04-24T06:08:25;15.10;99.90
4693;DHT22;11710;48.024;16.296;2023-04-24T06:10:54;15.40;99.90
4693;DHT22;11710;48.024;16.296;2023-04-24T06:13:21;15.40;99.90
4693;DHT22;11710;48.024;16.296;2023-04-24T06:15:48;15.20;99.90
4693;DHT22;11710;48.024;16.296;2023-04-24T06:18:15;15.00;99.90
4693;DHT22;11710;48.024;16.296;2023-04-24T06:20:44;15.10;99.90
4693;DHT22;11710;48.024;16.296;2023-04-24T06:23:12;15.10;99.80
4693;DHT22;11710;48.024;16.296;2023-04-24T06:25:39;15.10;99.90
4693;DHT22;11710;48.024;16.296;2023-04-24T06:28:08;15.10;99.90
4693;DHT22;11710;48.024;16.296;2023-04-24T06:30:35;15.20;99.90
4693;DHT22;11710;48.024;16.296;2023-04-24T06:33:03;15.30;99.90
4693;DHT22;11710;48.024;16.296;2023-04-24T06:35:30;15.40;99.80
4693;DHT22;11710;48.024;16.296;2023-04-24T06:37:58;15.40;99.70
4693;DHT22;11710;48.024;16.296;2023-04-24T06:40:25;15.60;99.40
4693;DHT22;11710;48.024;16.296;2023-04-24T06:42:52;15.70;99.10
4693;DHT22;11710;48.024;16.296;2023-04-24T06:45:21;15.60;98.90
4693;DHT22;11710;48.024;16.296;2023-04-24T06:47:48;15.60;99.00
4693;DHT22;11710;48.024;16.296;2023-04-24T06:50:16;15.40;98.90
4693;DHT22;11710;48.024;16.296;2023-04-24T06:52:43;15.30;99.40
4693;DHT22;11710;48.024;16.296;2023-04-24T06:55:10;15.30;99.70
4693;DHT22;11710;48.024;16.296;2023-04-24T06:57:37;15.40;99.80
4693;DHT22;11710;48.024;16.296;2023-04-24T07:00:06;15.40;99.30
4693;DHT22;11710;48.024;16.296;2023-04-24T07:02:36;15.30;99.20
4693;DHT22;11710;48.024;16.296;2023-04-24T07:05:04;15.20;99.00
4693;DHT22;11710;48.024;16.296;2023-04-24T07:07:32;15.20;99.00
4693;DHT22;11710;48.024;16.296;2023-04-24T07:10:00;15.30;99.10
4693;DHT22;11710;48.024;16.296;2023-04-24T07:12:27;15.50;99.00
4693;DHT22;11710;48.024;16.296;2023-04-24T07:14:54;15.60;98.90
4693;DHT22;11710;48.024;16.296;2023-04-24T07:17:21;15.70;98.90
4693;DHT22;11710;48.024;16.296;2023-04-24T07:19:50;15.80;98.50
4693;DHT22;11710;48.024;16.296;2023-04-24T07:22:17;15.80;98.60
4693;DHT22;11710;48.024;16.296;2023-04-24T07:24:45;15.70;98.70
4693;DHT22;11710;48.024;16.296;2023-04-24T07:27:12;15.70;99.00
4693;DHT22;11710;48.024;16.296;2023-04-24T07:29:40;15.70;98.80
4693;DHT22;11710;48.024;16.296;2023-04-24T07:32:07;15.80;98.90
4693;DHT22;11710;48.024;16.296;2023-04-24T07:34:35;15.90;98.70
4693;DHT22;11710;48.024;16.296;2023-04-24T07:37:03;15.90;98.60
4693;DHT22;11710;48.024;16.296;2023-04-24T07:39:31;15.90;98.80
4693;DHT22;11710;48.024;16.296;2023-04-24T07:41:58;15.90;99.00
4693;DHT22;11710;48.024;16.296;2023-04-24T07:44:27;16.00;99.00
4693;DHT22;11710;48.024;16.296;2023-04-24T07:46:54;16.10;99.10
4693;DHT22;11710;48.024;16.296;2023-04-24T07:49:23;16.10;98.80
4693;DHT22;11710;48.024;16.296;2023-04-24T07:51:50;16.20;98.70
4693;DHT22;11710;48.024;16.296;2023-04-24T07:54:18;16.20;98.60
4693;DHT22;11710;48.024;16.296;2023-04-24T07:56:46;16.20;98.50
4693;DHT22;11710;48.024;16.296;2023-04-24T07:59:13;16.20;98.30
4693;DHT22;11710;48.024;16.296;2023-04-24T08:01:41;16.20;98.30
4693;DHT22;11710;48.024;16.296;2023-04-24T08:04:08;16.20;98.30
4693;DHT22;11710;48.024;16.296;2023-04-24T08:06:35;16.20;98.40
4693;DHT22;11710;48.024;16.296;2023-04-24T08:09:03;16.10;98.40
4693;DHT22;11710;48.024;16.296;2023-04-24T08:11:31;16.10;98.50
4693;DHT22;11710;48.024;16.296;2023-04-24T08:13:59;16.10;98.90
4693;DHT22;11710;48.024;16.296;2023-04-24T08:16:26;16.00;99.30
4693;DHT22;11710;48.024;16.296;2023-04-24T08:18:53;16.00;99.60
4693;DHT22;11710;48.024;16.296;2023-04-24T08:21:21;16.00;99.90
4693;DHT22;11710;48.024;16.296;2023-04-24T08:23:48;16.00;99.90
4693;DHT22;11710;48.024;16.296;2023-04-24T08:26:15;16.00;99.90
4693;DHT22;11710;48.024;16.296;2023-04-24T08:28:44;16.00;99.90
4693;DHT22;11710;48.024;16.296;2023-04-24T08:31:11;16.00;99.90
4693;DHT22;11710;48.024;16.296;2023-04-24T08:33:39;16.00;99.90
4693;DHT22;11710;48.024;16.296;2023-04-24T08:36:07;15.80;99.90
4693;DHT22;11710;48.024;16.296;2023-04-24T08:38:34;15.60;99.90
4693;DHT22;11710;48.024;16.296;2023-04-24T08:41:02;15.50;99.90
4693;DHT22;11710;48.024;16.296;2023-04-24T08:43:32;15.60;99.90
4693;DHT22;11710;48.024;16.296;2023-04-24T08:46:01;15.60;99.90
4693;DHT22;11710;48.024;16.296;2023-04-24T08:48:29;15.60;99.90
4693;DHT22;11710;48.024;16.296;2023-04-24T08:50:57;15.60;99.90
4693;DHT22;11710;48.024;16.296;2023-04-24T08:53:25;15.50;99.90
4693;DHT22;11710;48.024;16.296;2023-04-24T08:55:55;15.50;99.90
4693;DHT22;11710;48.024;16.296;2023-04-24T08:58:25;15.50;99.90
4693;DHT22;11710;48.024;16.296;2023-04-24T09:00:54;15.60;99.90
4693;DHT22;11710;48.024;16.296;2023-04-24T09:03:23;15.60;99.90
4693;DHT22;11710;48.024;16.296;2023-04-24T09:05:51;15.50;99.90
4693;DHT22;11710;48.024;16.296;2023-04-24T09:08:22;15.40;99.90
4693;DHT22;11710;48.024;16.296;2023-04-24T09:10:51;15.40;99.90
4693;DHT22;11710;48.024;16.296;2023-04-24T09:13:19;15.40;99.90
4693;DHT22;11710;48.024;16.296;2023-04-24T09:15:47;15.40;99.90
4693;DHT22;11710;48.024;16.296;2023-04-24T09:18:14;15.40;99.90
4693;DHT22;11710;48.024;16.296;2023-04-24T09:21:02;15.40;99.90
4693;DHT22;11710;48.024;16.296;2023-04-24T09:23:30;15.30;99.90
4693;DHT22;11710;48.024;16.296;2023-04-24T09:25:59;15.30;99.70
4693;DHT22;11710;48.024;16.296;2023-04-24T09:28:30;15.20;99.50
4693;DHT22;11710;48.024;16.296;2023-04-24T09:31:05;15.10;99.10
4693;DHT22;11710;48.024;16.296;2023-04-24T09:33:33;14.90;99.30
4693;DHT22;11710;48.024;16.296;2023-04-24T09:36:03;14.80;99.20
4693;DHT22;11710;48.024;16.296;2023-04-24T09:38:34;14.90;99.20
4693;DHT22;11710;48.024;16.296;2023-04-24T09:41:03;14.90;99.10
4693;DHT22;11710;48.024;16.296;2023-04-24T09:43:31;14.90;98.90
4693;DHT22;11710;48.024;16.296;2023-04-24T09:46:00;14.90;98.70
4693;DHT22;11710;48.024;16.296;2023-04-24T09:48:31;14.90;98.60
4693;DHT22;11710;48.024;16.296;2023-04-24T09:51:02;14.90;98.40
4693;DHT22;11710;48.024;16.296;2023-04-24T09:53:31;14.90;97.80
4693;DHT22;11710;48.024;16.296;2023-04-24T09:56:02;14.90;97.60
4693;DHT22;11710;48.024;16.296;2023-04-24T09:58:30;14.90;97.40
4693;DHT22;11710;48.024;16.296;2023-04-24T10:00:57;14.80;97.40
4693;DHT22;11710;48.024;16.296;2023-04-24T10:03:25;14.70;97.50
4693;DHT22;11710;48.024;16.296;2023-04-24T10:05:59;14.60;97.50
4693;DHT22;11710;48.024;16.296;2023-04-24T10:08:33;14.50;97.50
4693;DHT22;11710;48.024;16.296;2023-04-24T10:11:01;14.40;97.60
4693;DHT22;11710;48.024;16.296;2023-04-24T10:13:28;14.40;97.80
4693;DHT22;11710;48.024;16.296;2023-04-24T10:15:56;14.30;97.70
4693;DHT22;11710;48.024;16.296;2023-04-24T10:18:26;14.30;97.90
4693;DHT22;11710;48.024;16.296;2023-04-24T10:20:55;14.20;98.10
4693;DHT22;11710;48.024;16.296;2023-04-24T10:23:27;14.20;98.20
4693;DHT22;11710;48.024;16.296;2023-04-24T10:25:54;14.20;98.30
4693;DHT22;11710;48.024;16.296;2023-04-24T10:28:24;14.30;98.50
4693;DHT22;11710;48.024;16.296;2023-04-24T10:30:54;14.30;98.40
4693;DHT22;11710;48.024;16.296;2023-04-24T10:33:22;14.30;98.60
4693;DHT22;11710;48.024;16.296;2023-04-24T10:35:51;14.40;98.60
4693;DHT22;11710;48.024;16.296;2023-04-24T10:38:22;14.40;98.60
4693;DHT22;11710;48.024;16.296;2023-04-24T10:40:57;14.40;98.70
4693;DHT22;11710;48.024;16.296;2023-04-24T10:43:34;14.40;98.60
4693;DHT22;11710;48.024;16.296;2023-04-24T10:46:03;14.40;98.90
4693;DHT22;11710;48.024;16.296;2023-04-24T10:48:31;14.40;98.60
4693;DHT22;11710;48.024;16.296;2023-04-24T10:50:59;14.40;98.80
4693;DHT22;11710;48.024;16.296;2023-04-24T10:53:28;14.50;98.80
4693;DHT22;11710;48.024;16.296;2023-04-24T10:56:04;14.50;98.70
4693;DHT22;11710;48.024;16.296;2023-04-24T10:58:41;14.50;98.70
4693;DHT22;11710;48.024;16.296;2023-04-24T11:01:23;14.50;98.60
4693;DHT22;11710;48.024;16.296;2023-04-24T11:03:55;14.50;98.80
4693;DHT22;11710;48.024;16.296;2023-04-24T11:06:29;14.50;98.90
4693;DHT22;11710;48.024;16.296;2023-04-24T11:09:03;14.40;98.90
4693;DHT22;11710;48.024;16.296;2023-04-24T11:11:34;14.40;99.50
4693;DHT22;11710;48.024;16.296;2023-04-24T11:14:08;14.40;99.90
4693;DHT22;11710;48.024;16.296;2023-04-24T11:16:39;14.40;99.90
4693;DHT22;11710;48.024;16.296;2023-04-24T11:19:18;14.30;99.90
4693;DHT22;11710;48.024;16.296;2023-04-24T11:21:48;14.30;99.90
4693;DHT22;11710;48.024;16.296;2023-04-24T11:24:32;14.20;99.90
4693;DHT22;11710;48.024;16.296;2023-04-24T11:27:06;14.20;99.90
4693;DHT22;11710;48.024;16.296;2023-04-24T11:29:45;14.20;99.90
4693;DHT22;11710;48.024;16.296;2023-04-24T11:32:17;14.20;99.90
4693;DHT22;11710;48.024;16.296;2023-04-24T11:34:47;14.20;99.90
4693;DHT22;11710;48.024;16.296;2023-04-24T11:37:14;14.20;99.90
4693;DHT22;11710;48.024;16.296;2023-04-24T11:39:42;14.20;99.90
4693;DHT22;11710;48.024;16.296;2023-04-24T11:42:12;14.20;99.90
4693;DHT22;11710;48.024;16.296;2023-04-24T11:44:41;14.20;99.90
4693;DHT22;11710;48.024;16.296;2023-04-24T11:47:10;14.20;99.90
4693;DHT22;11710;48.024;16.296;2023-04-24T11:49:37;14.30;99.90
4693;DHT22;11710;48.024;16.296;2023-04-24T11:52:06;14.30;99.90
4693;DHT22;11710;48.024;16.296;2023-04-24T11:54:33;14.40;99.90
4693;DHT22;11710;48.024;16.296;2023-04-24T11:57:04;14.50;99.90
4693;DHT22;11710;48.024;16.296;2023-04-24T11:59:37;14.60;99.90
4693;DHT22;11710;48.024;16.296;2023-04-24T12:02:04;14.60;99.90
4693;DHT22;11710;48.024;16.296;2023-04-24T12:04:39;14.70;99.90
4693;DHT22;11710;48.024;16.296;2023-04-24T12:07:07;14.80;99.90
4693;DHT22;11710;48.024;16.296;2023-04-24T12:09:43;14.90;99.90
4693;DHT22;11710;48.024;16.296;2023-04-24T12:12:12;15.00;99.90
4693;DHT22;11710;48.024;16.296;2023-04-24T12:14:45;15.10;99.90
4693;DHT22;11710;48.024;16.296;2023-04-24T12:17:14;15.30;99.90
4693;DHT22;11710;48.024;16.296;2023-04-24T12:19:46;15.40;99.90
4693;DHT22;11710;48.024;16.296;2023-04-24T12:22:14;15.60;99.90
4693;DHT22;11710;48.024;16.296;2023-04-24T12:25:01;15.70;99.90
4693;DHT22;11710;48.024;16.296;2023-04-24T12:27:31;15.90;99.90
4693;DHT22;11710;48.024;16.296;2023-04-24T12:30:01;16.00;99.90
4693;DHT22;11710;48.024;16.296;2023-04-24T12:32:30;16.10;99.90
4693;DHT22;11710;48.024;16.296;2023-04-24T12:34:57;16.20;99.90
4693;DHT22;11710;48.024;16.296;2023-04-24T12:37:26;16.30;99.90
4693;DHT22;11710;48.024;16.296;2023-04-24T12:40:00;16.40;99.90
4693;DHT22;11710;48.024;16.296;2023-04-24T12:42:29;16.40;99.90
4693;DHT22;11710;48.024;16.296;2023-04-24T12:44:57;16.40;99.90
4693;DHT22;11710;48.024;16.296;2023-04-24T12:47:28;16.50;99.90
4693;DHT22;11710;48.024;16.296;2023-04-24T12:49:56;16.60;99.90
4693;DHT22;11710;48.024;16.296;2023-04-24T12:52:23;16.60;99.90
4693;DHT22;11710;48.024;16.296;2023-04-24T12:54:54;16.50;99.90
4693;DHT22;11710;48.024;16.296;2023-04-24T12:57:22;16.40;99.90
4693;DHT22;11710;48.024;16.296;2023-04-24T12:59:50;16.40;99.90
4693;DHT22;11710;48.024;16.296;2023-04-24T13:02:17;16.40;99.90
4693;DHT22;11710;48.024;16.296;2023-04-24T13:04:46;16.40;99.90
4693;DHT22;11710;48.024;16.296;2023-04-24T13:07:14;16.50;99.90
4693;DHT22;11710;48.024;16.296;2023-04-24T13:09:42;16.50;99.80
4693;DHT22;11710;48.024;16.296;2023-04-24T13:12:09;16.60;99.70
4693;DHT22;11710;48.024;16.296;2023-04-24T13:14:37;16.70;99.70
4693;DHT22;11710;48.024;16.296;2023-04-24T13:17:04;16.80;99.00
4693;DHT22;11710;48.024;16.296;2023-04-24T13:19:37;16.80;99.10
4693;DHT22;11710;48.024;16.296;2023-04-24T13:22:06;16.80;98.70
4693;DHT22;11710;48.024;16.296;2023-04-24T13:24:33;16.80;98.80
4693;DHT22;11710;48.024;16.296;2023-04-24T13:27:01;16.80;98.00
4693;DHT22;11710;48.024;16.296;2023-04-24T13:29:29;16.80;98.10
4693;DHT22;11710;48.024;16.296;2023-04-24T13:31:56;16.80;97.80
4693;DHT22;11710;48.024;16.296;2023-04-24T13:34:24;16.80;98.00
4693;DHT22;11710;48.024;16.296;2023-04-24T13:36:53;16.90;98.20
4693;DHT22;11710;48.024;16.296;2023-04-24T13:39:23;16.90;98.00
4693;DHT22;11710;48.024;16.296;2023-04-24T13:41:50;17.00;98.10
4693;DHT22;11710;48.024;16.296;2023-04-24T13:44:18;17.00;97.60
4693;DHT22;11710;48.024;16.296;2023-04-24T13:46:47;17.00;97.30
4693;DHT22;11710;48.024;16.296;2023-04-24T13:49:16;17.00;97.00
4693;DHT22;11710;48.024;16.296;2023-04-24T13:51:43;17.00;97.00
4693;DHT22;11710;48.024;16.296;2023-04-24T13:54:11;16.90;97.10
4693;DHT22;11710;48.024;16.296;2023-04-24T13:56:40;16.90;97.30
4693;DHT22;11710;48.024;16.296;2023-04-24T13:59:07;16.90;97.30
4693;DHT22;11710;48.024;16.296;2023-04-24T14:01:35;16.70;96.70
4693;DHT22;11710;48.024;16.296;2023-04-24T14:04:02;16.70;96.90
4693;DHT22;11710;48.024;16.296;2023-04-24T14:06:29;16.60;97.00
4693;DHT22;11710;48.024;16.296;2023-04-24T14:08:56;16.50;97.10
4693;DHT22;11710;48.024;16.296;2023-04-24T14:11:24;16.40;97.30
4693;DHT22;11710;48.024;16.296;2023-04-24T14:13:55;16.30;97.00
4693;DHT22;11710;48.024;16.296;2023-04-24T14:16:34;16.30;97.30
4693;DHT22;11710;48.024;16.296;2023-04-24T14:19:02;16.40;97.60
4693;DHT22;11710;48.024;16.296;2023-04-24T14:21:31;16.40;98.00
4693;DHT22;11710;48.024;16.296;2023-04-24T14:23:59;16.40;97.90
4693;DHT22;11710;48.024;16.296;2023-04-24T14:26:26;16.30;97.90
4693;DHT22;11710;48.024;16.296;2023-04-24T14:28:55;16.30;98.10
4693;DHT22;11710;48.024;16.296;2023-04-24T14:31:22;16.30;98.30
4693;DHT22;11710;48.024;16.296;2023-04-24T14:33:50;16.20;98.40
4693;DHT22;11710;48.024;16.296;2023-04-24T14:36:17;16.20;98.60
4693;DHT22;11710;48.024;16.296;2023-04-24T14:38:44;16.10;98.80
4693;DHT22;11710;48.024;16.296;2023-04-24T14:41:12;16.10;99.00
4693;DHT22;11710;48.024;16.296;2023-04-24T14:43:39;16.00;99.30
4693;DHT22;11710;48.024;16.296;2023-04-24T14:46:08;16.00;99.20
4693;DHT22;11710;48.024;16.296;2023-04-24T14:48:35;16.00;99.30
4693;DHT22;11710;48.024;16.296;2023-04-24T14:51:02;15.90;99.40
4693;DHT22;11710;48.024;16.296;2023-04-24T14:53:31;15.90;99.30
4693;DHT22;11710;48.024;16.296;2023-04-24T14:55:58;15.70;99.40
4693;DHT22;11710;48.024;16.296;2023-04-24T14:58:25;15.70;99.60
4693;DHT22;11710;48.024;16.296;2023-04-24T15:00:52;15.60;99.50
4693;DHT22;11710;48.024;16.296;2023-04-24T15:03:21;15.40;99.40
4693;DHT22;11710;48.024;16.296;2023-04-24T15:05:49;15.30;99.70
4693;DHT22;11710;48.024;16.296;2023-04-24T15:08:17;15.30;99.90
4693;DHT22;11710;48.024;16.296;2023-04-24T15:10:44;15.20;99.90
4693;DHT22;11710;48.024;16.296;2023-04-24T15:13:11;15.10;99.90
4693;DHT22;11710;48.024;16.296;2023-04-24T15:15:39;15.00;99.90
4693;DHT22;11710;48.024;16.296;2023-04-24T15:18:07;14.90;99.90
4693;DHT22;11710;48.024;16.296;2023-04-24T15:20:38;14.90;99.90
4693;DHT22;11710;48.024;16.296;2023-04-24T15:23:08;14.80;99.90
4693;DHT22;11710;48.024;16.296;2023-04-24T15:25:35;14.80;99.90
4693;DHT22;11710;48.024;16.296;2023-04-24T15:28:04;14.80;99.90
4693;DHT22;11710;48.024;16.296;2023-04-24T15:30:31;14.70;99.90
4693;DHT22;11710;48.024;16.296;2023-04-24T15:32:59;14.50;99.90
4693;DHT22;11710;48.024;16.296;2023-04-24T15:35:28;14.30;99.90
4693;DHT22;11710;48.024;16.296;2023-04-24T15:37:57;14.00;99.90
4693;DHT22;11710;48.024;16.296;2023-04-24T15:40:26;13.90;99.90
4693;DHT22;11710;48.024;16.296;2023-04-24T15:42:53;13.80;99.90
4693;DHT22;11710;48.024;16.296;2023-04-24T15:45:21;13.70;99.90
4693;DHT22;11710;48.024;16.296;2023-04-24T15:47:50;13.60;99.90
4693;DHT22;11710;48.024;16.296;2023-04-24T15:50:18;13.50;99.90
4693;DHT22;11710;48.024;16.296;2023-04-24T15:52:47;13.40;99.90
4693;DHT22;11710;48.024;16.296;2023-04-24T15:55:16;13.30;99.90
4693;DHT22;11710;48.024;16.296;2023-04-24T15:57:43;13.30;99.90
4693;DHT22;11710;48.024;16.296;2023-04-24T16:00:11;13.20;99.90
4693;DHT22;11710;48.024;16.296;2023-04-24T16:02:39;13.20;99.90
4693;DHT22;11710;48.024;16.296;2023-04-24T16:05:06;13.10;99.90
4693;DHT22;11710;48.024;16.296;2023-04-24T16:07:36;13.00;99.90
4693;DHT22;11710;48.024;16.296;2023-04-24T16:10:04;13.00;99.90
4693;DHT22;11710;48.024;16.296;2023-04-24T16:12:33;12.90;99.90
4693;DHT22;11710;48.024;16.296;2023-04-24T16:15:00;12.90;99.90
4693;DHT22;11710;48.024;16.296;2023-04-24T16:17:27;12.80;99.90
4693;DHT22;11710;48.024;16.296;2023-04-24T16:19:55;12.70;99.90
4693;DHT22;11710;48.024;16.296;2023-04-24T16:22:22;12.60;99.90
4693;DHT22;11710;48.024;16.296;2023-04-24T16:24:49;12.50;99.90
4693;DHT22;11710;48.024;16.296;2023-04-24T16:27:16;12.50;99.90
4693;DHT22;11710;48.024;16.296;2023-04-24T16:29:45;12.40;99.90
4693;DHT22;11710;48.024;16.296;2023-04-24T16:32:13;12.30;99.90
4693;DHT22;11710;48.024;16.296;2023-04-24T16:34:40;12.30;99.90
4693;DHT22;11710;48.024;16.296;2023-04-24T16:37:07;12.20;99.90
4693;DHT22;11710;48.024;16.296;2023-04-24T16:39:34;12.20;99.90
4693;DHT22;11710;48.024;16.296;2023-04-24T16:42:03;12.10;99.90
4693;DHT22;11710;48.024;16.296;2023-04-24T16:44:31;12.00;99.90
4693;DHT22;11710;48.024;16.296;2023-04-24T16:47:00;12.00;99.90
4693;DHT22;11710;48.024;16.296;2023-04-24T16:49:27;12.00;99.90
4693;DHT22;11710;48.024;16.296;2023-04-24T16:51:56;12.00;99.90
4693;DHT22;11710;48.024;16.296;2023-04-24T16:54:23;12.00;99.90
4693;DHT22;11710;48.024;16.296;2023-04-24T16:56:51;12.00;99.90
4693;DHT22;11710;48.024;16.296;2023-04-24T16:59:18;12.00;99.90
4693;DHT22;11710;48.024;16.296;2023-04-24T17:01:45;12.00;99.90
4693;DHT22;11710;48.024;16.296;2023-04-24T17:04:14;12.00;99.90
4693;DHT22;11710;48.024;16.296;2023-04-24T17:06:41;12.00;99.90
4693;DHT22;11710;48.024;16.296;2023-04-24T17:09:09;12.00;99.90
4693;DHT22;11710;48.024;16.296;2023-04-24T17:11:38;12.00;99.90
4693;DHT22;11710;48.024;16.296;2023-04-24T17:14:05;12.00;99.90
4693;DHT22;11710;48.024;16.296;2023-04-24T17:16:32;12.00;99.90
4693;DHT22;11710;48.024;16.296;2023-04-24T17:18:59;12.00;99.90
4693;DHT22;11710;48.024;16.296;2023-04-24T17:21:28;12.00;99.90
4693;DHT22;11710;48.024;16.296;2023-04-24T17:23:56;12.00;99.90
4693;DHT22;11710;48.024;16.296;2023-04-24T17:26:23;12.00;99.90
4693;DHT22;11710;48.024;16.296;2023-04-24T17:28:50;12.00;99.90
4693;DHT22;11710;48.024;16.296;2023-04-24T17:31:19;12.10;99.90
4693;DHT22;11710;48.024;16.296;2023-04-24T17:33:48;12.10;99.90
4693;DHT22;11710;48.024;16.296;2023-04-24T17:36:15;12.10;99.90
4693;DHT22;11710;48.024;16.296;2023-04-24T17:38:44;12.10;99.90
4693;DHT22;11710;48.024;16.296;2023-04-24T17:41:11;12.10;99.90
4693;DHT22;11710;48.024;16.296;2023-04-24T17:46:10;12.10;99.90
4693;DHT22;11710;48.024;16.296;2023-04-24T17:48:38;12.10;99.90
4693;DHT22;11710;48.024;16.296;2023-04-24T17:51:05;12.20;99.90
4693;DHT22;11710;48.024;16.296;2023-04-24T17:53:32;12.20;99.90
4693;DHT22;11710;48.024;16.296;2023-04-24T17:56:01;12.20;99.90
4693;DHT22;11710;48.024;16.296;2023-04-24T17:58:29;12.20;99.90
4693;DHT22;11710;48.024;16.296;2023-04-24T18:00:56;12.20;99.90
4693;DHT22;11710;48.024;16.296;2023-04-24T18:03:23;12.20;99.90
4693;DHT22;11710;48.024;16.296;2023-04-24T18:05:51;12.20;99.90
4693;DHT22;11710;48.024;16.296;2023-04-24T18:08:19;12.20;99.90
4693;DHT22;11710;48.024;16.296;2023-04-24T18:10:46;12.20;99.90
4693;DHT22;11710;48.024;16.296;2023-04-24T18:13:14;12.20;99.90
4693;DHT22;11710;48.024;16.296;2023-04-24T18:15:42;12.20;99.90
4693;DHT22;11710;48.024;16.296;2023-04-24T18:18:09;12.20;99.90
4693;DHT22;11710;48.024;16.296;2023-04-24T18:20:37;12.20;99.90
4693;DHT22;11710;48.024;16.296;2023-04-24T18:23:04;12.10;99.90
4693;DHT22;11710;48.024;16.296;2023-04-24T18:25:31;12.10;99.90
4693;DHT22;11710;48.024;16.296;2023-04-24T18:27:58;12.10;99.90
4693;DHT22;11710;48.024;16.296;2023-04-24T18:30:27;12.10;99.90
4693;DHT22;11710;48.024;16.296;2023-04-24T18:32:55;12.10;99.90
4693;DHT22;11710;48.024;16.296;2023-04-24T18:35:23;12.10;99.90
4693;DHT22;11710;48.024;16.296;2023-04-24T18:37:50;12.10;99.90
4693;DHT22;11710;48.024;16.296;2023-04-24T18:40:18;12.10;99.90
4693;DHT22;11710;48.024;16.296;2023-04-24T18:42:45;12.00;99.90
4693;DHT22;11710;48.024;16.296;2023-04-24T18:45:12;12.10;99.90
4693;DHT22;11710;48.024;16.296;2023-04-24T18:47:41;12.10;99.90
4693;DHT22;11710;48.024;16.296;2023-04-24T18:50:10;12.00;99.90
4693;DHT22;11710;48.024;16.296;2023-04-24T18:52:39;12.00;99.90
4693;DHT22;11710;48.024;16.296;2023-04-24T18:55:08;12.00;99.90
4693;DHT22;11710;48.024;16.296;2023-04-24T18:57:36;12.00;99.90
4693;DHT22;11710;48.024;16.296;2023-04-24T19:00:05;12.00;99.90
4693;DHT22;11710;48.024;16.296;2023-04-24T19:02:34;12.00;99.90
4693;DHT22;11710;48.024;16.296;2023-04-24T19:05:04;12.00;99.90
4693;DHT22;11710;48.024;16.296;2023-04-24T19:07:31;12.00;99.90
4693;DHT22;11710;48.024;16.296;2023-04-24T19:09:59;12.10;99.90
4693;DHT22;11710;48.024;16.296;2023-04-24T19:12:26;12.10;99.90
4693;DHT22;11710;48.024;16.296;2023-04-24T19:14:54;12.10;99.90
4693;DHT22;11710;48.024;16.296;2023-04-24T19:17:23;12.10;99.90
4693;DHT22;11710;48.024;16.296;2023-04-24T19:19:51;12.10;99.90
4693;DHT22;11710;48.024;16.296;2023-04-24T19:22:21;12.10;99.90
4693;DHT22;11710;48.024;16.296;2023-04-24T19:24:50;12.20;99.90
4693;DHT22;11710;48.024;16.296;2023-04-24T19:27:18;12.10;99.90
4693;DHT22;11710;48.024;16.296;2023-04-24T19:29:47;12.20;99.90
4693;DHT22;11710;48.024;16.296;2023-04-24T19:32:16;12.20;99.90
4693;DHT22;11710;48.024;16.296;2023-04-24T19:34:44;12.20;99.90
4693;DHT22;11710;48.024;16.296;2023-04-24T19:37:12;12.10;99.90
4693;DHT22;11710;48.024;16.296;2023-04-24T19:39:42;12.20;99.90
4693;DHT22;11710;48.024;16.296;2023-04-24T19:42:10;12.20;99.90
4693;DHT22;11710;48.024;16.296;2023-04-24T19:44:38;12.20;99.90
4693;DHT22;11710;48.024;16.296;2023-04-24T19:47:06;12.20;99.90
4693;DHT22;11710;48.024;16.296;2023-04-24T19:49:34;12.20;99.90
4693;DHT22;11710;48.024;16.296;2023-04-24T19:52:03;12.20;99.90
4693;DHT22;11710;48.024;16.296;2023-04-24T19:54:30;12.20;99.90
4693;DHT22;11710;48.024;16.296;2023-04-24T19:57:00;12.30;99.90
4693;DHT22;11710;48.024;16.296;2023-04-24T19:59:28;12.30;99.90
4693;DHT22;11710;48.024;16.296;2023-04-24T20:01:56;12.30;99.90
4693;DHT22;11710;48.024;16.296;2023-04-24T20:04:24;12.30;99.90
4693;DHT22;11710;48.024;16.296;2023-04-24T20:06:53;12.30;99.90
4693;DHT22;11710;48.024;16.296;2023-04-24T20:09:20;12.30;99.90
4693;DHT22;11710;48.024;16.296;2023-04-24T20:11:48;12.30;99.90
4693;DHT22;11710;48.024;16.296;2023-04-24T20:14:21;12.40;99.90
4693;DHT22;11710;48.024;16.296;2023-04-24T20:16:49;12.40;99.90
4693;DHT22;11710;48.024;16.296;2023-04-24T20:19:19;12.30;99.90
4693;DHT22;11710;48.024;16.296;2023-04-24T20:21:47;12.30;99.90
4693;DHT22;11710;48.024;16.296;2023-04-24T20:24:14;12.30;99.90